sensor_id;sensor_type;location;lat;lon;timestamp;P1;durP1;ratioP1;P2;durP2;ratioP2
7571;SDS011;3827;49.928;8.548;2023-01-23T00:00:09;11.02;;;10.13;;
7571;SDS011;3827;49.928;8.548;2023-01-23T00:02:39;10.68;;;9.85;;
7571;SDS011;3827;49.928;8.548;2023-01-23T00:05:06;10.23;;;9.43;;
7571;SDS011;3827;49.928;8.548;2023-01-23T00:07:33;10.10;;;9.30;;
7571;SDS011;3827;49.928;8.548;2023-01-23T00:10:00;10.23;;;9.43;;
7571;SDS011;3827;49.928;8.548;2023-01-23T00:12:29;10.43;;;9.63;;
7571;SDS011;3827;49.928;8.548;2023-01-23T00:14:55;9.90;;;9.10;;
7571;SDS011;3827;49.928;8.548;2023-01-23T00:17:23;9.98;;;9.18;;
7571;SDS011;3827;49.928;8.548;2023-01-23T00:19:51;10.10;;;9.30;;
7571;SDS011;3827;49.928;8.548;2023-01-23T00:22:18;10.30;;;9.50;;
7571;SDS011;3827;49.928;8.548;2023-01-23T00:24:45;10.70;;;9.90;;
7571;SDS011;3827;49.928;8.548;2023-01-23T00:27:12;9.98;;;9.18;;
7571;SDS011;3827;49.928;8.548;2023-01-23T00:29:40;10.20;;;9.40;;
7571;SDS011;3827;49.928;8.548;2023-01-23T00:32:07;10.40;;;9.60;;
7571;SDS011;3827;49.928;8.548;2023-01-23T00:34:34;10.57;;;9.77;;
7571;SDS011;3827;49.928;8.548;2023-01-23T00:37:00;10.43;;;9.63;;
7571;SDS011;3827;49.928;8.548;2023-01-23T00:39:27;11.13;;;10.23;;
7571;SDS011;3827;49.928;8.548;2023-01-23T00:41:54;10.80;;;10.00;;
7571;SDS011;3827;49.928;8.548;2023-01-23T00:44:21;10.88;;;9.98;;
7571;SDS011;3827;49.928;8.548;2023-01-23T00:46:49;10.30;;;9.50;;
7571;SDS011;3827;49.928;8.548;2023-01-23T00:49:16;10.23;;;9.45;;
7571;SDS011;3827;49.928;8.548;2023-01-23T00:51:43;10.32;;;9.52;;
7571;SDS011;3827;49.928;8.548;2023-01-23T00:54:10;9.97;;;9.17;;
7571;SDS011;3827;49.928;8.548;2023-01-23T00:56:37;9.40;;;8.70;;
7571;SDS011;3827;49.928;8.548;2023-01-23T00:59:04;10.50;;;9.60;;
7571;SDS011;3827;49.928;8.548;2023-01-23T01:01:31;10.55;;;9.75;;
7571;SDS011;3827;49.928;8.548;2023-01-23T01:03:59;9.38;;;8.68;;
7571;SDS011;3827;49.928;8.548;2023-01-23T01:06:26;10.20;;;9.40;;
7571;SDS011;3827;49.928;8.548;2023-01-23T01:08:53;9.90;;;9.10;;
7571;SDS011;3827;49.928;8.548;2023-01-23T01:11:21;10.25;;;9.45;;
7571;SDS011;3827;49.928;8.548;2023-01-23T01:13:48;10.68;;;9.82;;
7571;SDS011;3827;49.928;8.548;2023-01-23T01:16:15;10.48;;;9.68;;
7571;SDS011;3827;49.928;8.548;2023-01-23T01:18:42;10.13;;;9.23;;
7571;SDS011;3827;49.928;8.548;2023-01-23T01:21:11;10.37;;;9.57;;
7571;SDS011;3827;49.928;8.548;2023-01-23T01:23:39;10.97;;;10.10;;
7571;SDS011;3827;49.928;8.548;2023-01-23T01:26:06;10.63;;;9.82;;
7571;SDS011;3827;49.928;8.548;2023-01-23T01:28:34;10.30;;;9.40;;
7571;SDS011;3827;49.928;8.548;2023-01-23T01:31:04;10.30;;;9.50;;
7571;SDS011;3827;49.928;8.548;2023-01-23T01:33:32;10.77;;;9.88;;
7571;SDS011;3827;49.928;8.548;2023-01-23T01:36:00;10.43;;;9.63;;
7571;SDS011;3827;49.928;8.548;2023-01-23T01:38:28;10.55;;;9.75;;
7571;SDS011;3827;49.928;8.548;2023-01-23T01:40:55;10.70;;;9.82;;
7571;SDS011;3827;49.928;8.548;2023-01-23T01:43:23;11.02;;;10.13;;
7571;SDS011;3827;49.928;8.548;2023-01-23T01:46:03;10.57;;;9.77;;
7571;SDS011;3827;49.928;8.548;2023-01-23T01:48:33;11.43;;;10.52;;
7571;SDS011;3827;49.928;8.548;2023-01-23T01:51:02;11.45;;;10.55;;
7571;SDS011;3827;49.928;8.548;2023-01-23T01:53:35;11.10;;;10.20;;
7571;SDS011;3827;49.928;8.548;2023-01-23T01:56:03;10.98;;;10.07;;
7571;SDS011;3827;49.928;8.548;2023-01-23T01:58:31;11.27;;;10.38;;
7571;SDS011;3827;49.928;8.548;2023-01-23T02:00:59;10.75;;;9.85;;
7571;SDS011;3827;49.928;8.548;2023-01-23T02:03:25;10.70;;;9.90;;
7571;SDS011;3827;49.928;8.548;2023-01-23T02:05:52;11.27;;;10.38;;
7571;SDS011;3827;49.928;8.548;2023-01-23T02:08:21;10.88;;;9.98;;
7571;SDS011;3827;49.928;8.548;2023-01-23T02:10:56;10.90;;;10.00;;
7571;SDS011;3827;49.928;8.548;2023-01-23T02:13:27;10.85;;;9.95;;
7571;SDS011;3827;49.928;8.548;2023-01-23T02:15:58;10.23;;;9.43;;
7571;SDS011;3827;49.928;8.548;2023-01-23T02:18:26;11.20;;;10.30;;
7571;SDS011;3827;49.928;8.548;2023-01-23T02:20:55;11.55;;;10.55;;
7571;SDS011;3827;49.928;8.548;2023-01-23T02:23:25;11.88;;;10.88;;
7571;SDS011;3827;49.928;8.548;2023-01-23T02:26:05;10.75;;;9.85;;
7571;SDS011;3827;49.928;8.548;2023-01-23T02:28:37;11.65;;;10.73;;
7571;SDS011;3827;49.928;8.548;2023-01-23T02:31:06;11.18;;;10.27;;
7571;SDS011;3827;49.928;8.548;2023-01-23T02:33:42;11.35;;;10.45;;
7571;SDS011;3827;49.928;8.548;2023-01-23T02:36:13;11.57;;;10.68;;
7571;SDS011;3827;49.928;8.548;2023-01-23T02:38:44;11.40;;;10.50;;
7571;SDS011;3827;49.928;8.548;2023-01-23T02:41:19;11.23;;;10.27;;
7571;SDS011;3827;49.928;8.548;2023-01-23T02:43:49;11.70;;;10.70;;
7571;SDS011;3827;49.928;8.548;2023-01-23T02:46:17;12.40;;;11.32;;
7571;SDS011;3827;49.928;8.548;2023-01-23T02:48:45;11.80;;;10.80;;
7571;SDS011;3827;49.928;8.548;2023-01-23T02:51:13;12.10;;;11.00;;
7571;SDS011;3827;49.928;8.548;2023-01-23T02:53:41;12.55;;;11.45;;
7571;SDS011;3827;49.928;8.548;2023-01-23T02:56:09;13.00;;;11.90;;
7571;SDS011;3827;49.928;8.548;2023-01-23T02:58:37;12.27;;;11.27;;
7571;SDS011;3827;49.928;8.548;2023-01-23T03:01:22;12.57;;;11.47;;
7571;SDS011;3827;49.928;8.548;2023-01-23T03:03:49;13.15;;;12.02;;
7571;SDS011;3827;49.928;8.548;2023-01-23T03:06:17;12.25;;;11.20;;
7571;SDS011;3827;49.928;8.548;2023-01-23T03:08:45;12.88;;;11.77;;
7571;SDS011;3827;49.928;8.548;2023-01-23T03:11:14;12.60;;;11.48;;
7571;SDS011;3827;49.928;8.548;2023-01-23T03:13:44;12.70;;;11.60;;
7571;SDS011;3827;49.928;8.548;2023-01-23T03:16:11;13.00;;;11.80;;
7571;SDS011;3827;49.928;8.548;2023-01-23T03:18:38;12.07;;;11.07;;
7571;SDS011;3827;49.928;8.548;2023-01-23T03:21:05;12.45;;;11.35;;
7571;SDS011;3827;49.928;8.548;2023-01-23T03:23:33;12.00;;;11.00;;
7571;SDS011;3827;49.928;8.548;2023-01-23T03:26:00;11.85;;;10.85;;
7571;SDS011;3827;49.928;8.548;2023-01-23T03:28:28;11.88;;;10.85;;
7571;SDS011;3827;49.928;8.548;2023-01-23T03:31:14;11.37;;;10.40;;
7571;SDS011;3827;49.928;8.548;2023-01-23T03:33:41;11.30;;;10.40;;
7571;SDS011;3827;49.928;8.548;2023-01-23T03:36:09;11.77;;;10.77;;
7571;SDS011;3827;49.928;8.548;2023-01-23T03:38:36;10.75;;;9.85;;
7571;SDS011;3827;49.928;8.548;2023-01-23T03:41:03;11.47;;;10.50;;
7571;SDS011;3827;49.928;8.548;2023-01-23T03:43:59;11.30;;;10.30;;
7571;SDS011;3827;49.928;8.548;2023-01-23T03:46:27;11.50;;;10.50;;
7571;SDS011;3827;49.928;8.548;2023-01-23T03:48:54;11.30;;;10.30;;
7571;SDS011;3827;49.928;8.548;2023-01-23T03:51:21;11.18;;;10.27;;
7571;SDS011;3827;49.928;8.548;2023-01-23T03:53:48;11.10;;;10.20;;
7571;SDS011;3827;49.928;8.548;2023-01-23T03:56:14;11.85;;;10.88;;
7571;SDS011;3827;49.928;8.548;2023-01-23T03:58:41;11.32;;;10.43;;
7571;SDS011;3827;49.928;8.548;2023-01-23T04:01:08;11.07;;;10.18;;
7571;SDS011;3827;49.928;8.548;2023-01-23T04:03:36;10.98;;;10.07;;
7571;SDS011;3827;49.928;8.548;2023-01-23T04:06:03;12.20;;;11.20;;
7571;SDS011;3827;49.928;8.548;2023-01-23T04:08:30;11.65;;;10.65;;
7571;SDS011;3827;49.928;8.548;2023-01-23T04:11:00;11.80;;;10.80;;
7571;SDS011;3827;49.928;8.548;2023-01-23T04:13:28;11.40;;;10.40;;
7571;SDS011;3827;49.928;8.548;2023-01-23T04:15:55;11.68;;;10.68;;
7571;SDS011;3827;49.928;8.548;2023-01-23T04:18:22;11.63;;;10.63;;
7571;SDS011;3827;49.928;8.548;2023-01-23T04:20:51;10.63;;;9.73;;
7571;SDS011;3827;49.928;8.548;2023-01-23T04:23:18;11.25;;;10.25;;
7571;SDS011;3827;49.928;8.548;2023-01-23T04:25:45;11.10;;;10.20;;
7571;SDS011;3827;49.928;8.548;2023-01-23T04:28:11;10.90;;;10.00;;
7571;SDS011;3827;49.928;8.548;2023-01-23T04:30:38;11.35;;;10.35;;
7571;SDS011;3827;49.928;8.548;2023-01-23T04:33:05;10.15;;;9.27;;
7571;SDS011;3827;49.928;8.548;2023-01-23T04:35:32;10.70;;;9.80;;
7571;SDS011;3827;49.928;8.548;2023-01-23T04:38:00;9.63;;;8.88;;
7571;SDS011;3827;49.928;8.548;2023-01-23T04:40:27;9.98;;;9.07;;
7571;SDS011;3827;49.928;8.548;2023-01-23T04:42:54;9.27;;;8.48;;
7571;SDS011;3827;49.928;8.548;2023-01-23T04:45:21;9.48;;;8.73;;
7571;SDS011;3827;49.928;8.548;2023-01-23T04:47:48;9.55;;;8.75;;
7571;SDS011;3827;49.928;8.548;2023-01-23T04:50:15;9.25;;;8.55;;
7571;SDS011;3827;49.928;8.548;2023-01-23T04:52:41;8.88;;;8.15;;
7571;SDS011;3827;49.928;8.548;2023-01-23T04:55:10;8.57;;;7.88;;
7571;SDS011;3827;49.928;8.548;2023-01-23T04:57:36;8.85;;;8.15;;
7571;SDS011;3827;49.928;8.548;2023-01-23T05:00:03;8.68;;;7.88;;
7571;SDS011;3827;49.928;8.548;2023-01-23T05:02:31;7.93;;;7.30;;
7571;SDS011;3827;49.928;8.548;2023-01-23T05:04:58;7.95;;;7.25;;
7571;SDS011;3827;49.928;8.548;2023-01-23T05:07:25;7.60;;;7.00;;
7571;SDS011;3827;49.928;8.548;2023-01-23T05:09:51;7.80;;;7.20;;
7571;SDS011;3827;49.928;8.548;2023-01-23T05:12:20;7.65;;;6.95;;
7571;SDS011;3827;49.928;8.548;2023-01-23T05:14:46;7.80;;;7.20;;
7571;SDS011;3827;49.928;8.548;2023-01-23T05:17:13;7.13;;;6.53;;
7571;SDS011;3827;49.928;8.548;2023-01-23T05:19:40;7.70;;;7.10;;
7571;SDS011;3827;49.928;8.548;2023-01-23T05:22:07;7.43;;;6.82;;
7571;SDS011;3827;49.928;8.548;2023-01-23T05:24:33;7.43;;;6.82;;
7571;SDS011;3827;49.928;8.548;2023-01-23T05:27:00;7.60;;;7.00;;
7571;SDS011;3827;49.928;8.548;2023-01-23T05:29:28;7.35;;;6.75;;
7571;SDS011;3827;49.928;8.548;2023-01-23T05:31:55;7.50;;;6.90;;
7571;SDS011;3827;49.928;8.548;2023-01-23T05:34:22;7.38;;;6.78;;
7571;SDS011;3827;49.928;8.548;2023-01-23T05:36:49;6.85;;;6.35;;
7571;SDS011;3827;49.928;8.548;2023-01-23T05:39:16;7.43;;;6.82;;
7571;SDS011;3827;49.928;8.548;2023-01-23T05:41:43;7.30;;;6.70;;
7571;SDS011;3827;49.928;8.548;2023-01-23T05:44:09;6.90;;;6.40;;
7571;SDS011;3827;49.928;8.548;2023-01-23T05:46:38;7.10;;;6.50;;
7571;SDS011;3827;49.928;8.548;2023-01-23T05:49:04;7.22;;;6.63;;
7571;SDS011;3827;49.928;8.548;2023-01-23T05:51:31;6.35;;;5.82;;
7571;SDS011;3827;49.928;8.548;2023-01-23T05:53:58;6.33;;;5.83;;
7571;SDS011;3827;49.928;8.548;2023-01-23T05:56:28;6.68;;;6.18;;
7571;SDS011;3827;49.928;8.548;2023-01-23T05:58:55;6.65;;;6.15;;
7571;SDS011;3827;49.928;8.548;2023-01-23T06:01:22;7.00;;;6.40;;
7571;SDS011;3827;49.928;8.548;2023-01-23T06:03:50;6.88;;;6.28;;
7571;SDS011;3827;49.928;8.548;2023-01-23T06:06:17;6.65;;;6.15;;
7571;SDS011;3827;49.928;8.548;2023-01-23T06:08:44;6.50;;;6.00;;
7571;SDS011;3827;49.928;8.548;2023-01-23T06:11:11;6.55;;;6.05;;
7571;SDS011;3827;49.928;8.548;2023-01-23T06:13:37;6.00;;;5.50;;
7571;SDS011;3827;49.928;8.548;2023-01-23T06:16:05;6.55;;;6.03;;
7571;SDS011;3827;49.928;8.548;2023-01-23T06:18:33;6.40;;;5.90;;
7571;SDS011;3827;49.928;8.548;2023-01-23T06:21:01;7.13;;;6.53;;
7571;SDS011;3827;49.928;8.548;2023-01-23T06:23:29;6.80;;;6.20;;
7571;SDS011;3827;49.928;8.548;2023-01-23T06:25:57;6.33;;;5.83;;
7571;SDS011;3827;49.928;8.548;2023-01-23T06:28:25;7.40;;;6.80;;
7571;SDS011;3827;49.928;8.548;2023-01-23T06:30:53;7.07;;;6.57;;
7571;SDS011;3827;49.928;8.548;2023-01-23T06:33:19;6.50;;;6.00;;
7571;SDS011;3827;49.928;8.548;2023-01-23T06:35:46;7.05;;;6.55;;
7571;SDS011;3827;49.928;8.548;2023-01-23T06:38:14;6.70;;;6.20;;
7571;SDS011;3827;49.928;8.548;2023-01-23T06:40:42;6.65;;;6.15;;
7571;SDS011;3827;49.928;8.548;2023-01-23T06:43:09;7.30;;;6.70;;
7571;SDS011;3827;49.928;8.548;2023-01-23T06:45:36;6.93;;;6.43;;
7571;SDS011;3827;49.928;8.548;2023-01-23T06:48:02;7.03;;;6.53;;
7571;SDS011;3827;49.928;8.548;2023-01-23T06:50:29;7.47;;;6.88;;
7571;SDS011;3827;49.928;8.548;2023-01-23T06:52:56;7.25;;;6.65;;
7571;SDS011;3827;49.928;8.548;2023-01-23T06:55:24;7.55;;;6.95;;
7571;SDS011;3827;49.928;8.548;2023-01-23T06:57:51;7.00;;;6.40;;
7571;SDS011;3827;49.928;8.548;2023-01-23T07:00:18;7.47;;;6.88;;
7571;SDS011;3827;49.928;8.548;2023-01-23T07:02:46;7.70;;;7.10;;
7571;SDS011;3827;49.928;8.548;2023-01-23T07:05:13;7.80;;;7.20;;
7571;SDS011;3827;49.928;8.548;2023-01-23T07:07:40;8.10;;;7.50;;
7571;SDS011;3827;49.928;8.548;2023-01-23T07:10:07;7.60;;;7.00;;
7571;SDS011;3827;49.928;8.548;2023-01-23T07:12:36;7.40;;;6.80;;
7571;SDS011;3827;49.928;8.548;2023-01-23T07:15:03;7.47;;;6.90;;
7571;SDS011;3827;49.928;8.548;2023-01-23T07:17:31;7.82;;;7.20;;
7571;SDS011;3827;49.928;8.548;2023-01-23T07:19:58;7.65;;;7.05;;
7571;SDS011;3827;49.928;8.548;2023-01-23T07:22:25;7.47;;;6.88;;
7571;SDS011;3827;49.928;8.548;2023-01-23T07:24:51;7.82;;;7.22;;
7571;SDS011;3827;49.928;8.548;2023-01-23T07:27:18;8.10;;;7.47;;
7571;SDS011;3827;49.928;8.548;2023-01-23T07:29:46;8.02;;;7.43;;
7571;SDS011;3827;49.928;8.548;2023-01-23T07:32:13;8.30;;;7.70;;
7571;SDS011;3827;49.928;8.548;2023-01-23T07:34:40;8.37;;;7.67;;
7571;SDS011;3827;49.928;8.548;2023-01-23T07:37:07;8.35;;;7.65;;
7571;SDS011;3827;49.928;8.548;2023-01-23T07:39:34;8.70;;;8.00;;
7571;SDS011;3827;49.928;8.548;2023-01-23T07:42:00;8.68;;;7.97;;
7571;SDS011;3827;49.928;8.548;2023-01-23T07:44:27;8.52;;;7.82;;
7571;SDS011;3827;49.928;8.548;2023-01-23T07:46:55;8.70;;;8.00;;
7571;SDS011;3827;49.928;8.548;2023-01-23T07:49:22;8.65;;;7.93;;
7571;SDS011;3827;49.928;8.548;2023-01-23T07:51:49;8.75;;;8.00;;
7571;SDS011;3827;49.928;8.548;2023-01-23T07:54:16;8.40;;;7.70;;
7571;SDS011;3827;49.928;8.548;2023-01-23T07:56:43;7.68;;;7.07;;
7571;SDS011;3827;49.928;8.548;2023-01-23T07:59:10;7.57;;;6.97;;
7571;SDS011;3827;49.928;8.548;2023-01-23T08:01:37;7.25;;;6.65;;
7571;SDS011;3827;49.928;8.548;2023-01-23T08:04:05;7.57;;;6.97;;
7571;SDS011;3827;49.928;8.548;2023-01-23T08:06:32;7.67;;;6.97;;
7571;SDS011;3827;49.928;8.548;2023-01-23T08:09:00;7.53;;;6.93;;
7571;SDS011;3827;49.928;8.548;2023-01-23T08:11:27;6.97;;;6.38;;
7571;SDS011;3827;49.928;8.548;2023-01-23T08:13:54;7.50;;;6.90;;
7571;SDS011;3827;49.928;8.548;2023-01-23T08:16:21;7.28;;;6.68;;
7571;SDS011;3827;49.928;8.548;2023-01-23T08:18:48;7.65;;;7.05;;
7571;SDS011;3827;49.928;8.548;2023-01-23T08:21:16;7.50;;;6.90;;
7571;SDS011;3827;49.928;8.548;2023-01-23T08:23:43;6.97;;;6.37;;
7571;SDS011;3827;49.928;8.548;2023-01-23T08:26:10;7.30;;;6.70;;
7571;SDS011;3827;49.928;8.548;2023-01-23T08:28:38;6.63;;;6.13;;
7571;SDS011;3827;49.928;8.548;2023-01-23T08:31:06;6.70;;;6.20;;
7571;SDS011;3827;49.928;8.548;2023-01-23T08:33:35;7.07;;;6.47;;
7571;SDS011;3827;49.928;8.548;2023-01-23T08:36:03;7.07;;;6.43;;
7571;SDS011;3827;49.928;8.548;2023-01-23T08:38:33;6.50;;;6.00;;
7571;SDS011;3827;49.928;8.548;2023-01-23T08:41:01;6.70;;;6.20;;
7571;SDS011;3827;49.928;8.548;2023-01-23T08:43:28;6.38;;;5.88;;
7571;SDS011;3827;49.928;8.548;2023-01-23T08:45:56;6.72;;;6.22;;
7571;SDS011;3827;49.928;8.548;2023-01-23T08:48:24;6.80;;;6.30;;
7571;SDS011;3827;49.928;8.548;2023-01-23T08:50:57;6.85;;;6.35;;
7571;SDS011;3827;49.928;8.548;2023-01-23T08:53:26;8.10;;;7.50;;
7571;SDS011;3827;49.928;8.548;2023-01-23T08:56:04;10.15;;;9.25;;
7571;SDS011;3827;49.928;8.548;2023-01-23T08:58:35;8.88;;;8.18;;
7571;SDS011;3827;49.928;8.548;2023-01-23T09:01:02;9.68;;;8.77;;
7571;SDS011;3827;49.928;8.548;2023-01-23T09:03:28;8.30;;;7.60;;
7571;SDS011;3827;49.928;8.548;2023-01-23T09:05:59;7.82;;;7.22;;
7571;SDS011;3827;49.928;8.548;2023-01-23T09:08:26;7.50;;;6.90;;
7571;SDS011;3827;49.928;8.548;2023-01-23T09:10:53;8.27;;;7.65;;
7571;SDS011;3827;49.928;8.548;2023-01-23T09:13:25;7.90;;;7.20;;
7571;SDS011;3827;49.928;8.548;2023-01-23T09:15:52;8.13;;;7.43;;
7571;SDS011;3827;49.928;8.548;2023-01-23T09:18:19;8.60;;;7.90;;
7571;SDS011;3827;49.928;8.548;2023-01-23T09:20:46;7.15;;;6.55;;
7571;SDS011;3827;49.928;8.548;2023-01-23T09:23:13;7.78;;;7.18;;
7571;SDS011;3827;49.928;8.548;2023-01-23T09:25:40;7.07;;;6.57;;
7571;SDS011;3827;49.928;8.548;2023-01-23T09:28:07;6.85;;;6.35;;
7571;SDS011;3827;49.928;8.548;2023-01-23T09:30:35;6.47;;;5.97;;
7571;SDS011;3827;49.928;8.548;2023-01-23T09:33:03;6.90;;;6.30;;
7571;SDS011;3827;49.928;8.548;2023-01-23T09:35:30;6.05;;;5.57;;
7571;SDS011;3827;49.928;8.548;2023-01-23T09:37:57;5.95;;;5.55;;
7571;SDS011;3827;49.928;8.548;2023-01-23T09:40:29;6.07;;;5.57;;
7571;SDS011;3827;49.928;8.548;2023-01-23T09:42:59;5.82;;;5.32;;
7571;SDS011;3827;49.928;8.548;2023-01-23T09:45:30;5.80;;;5.40;;
7571;SDS011;3827;49.928;8.548;2023-01-23T09:48:03;6.03;;;5.53;;
7571;SDS011;3827;49.928;8.548;2023-01-23T09:50:39;5.60;;;5.20;;
7571;SDS011;3827;49.928;8.548;2023-01-23T09:53:17;5.28;;;4.88;;
7571;SDS011;3827;49.928;8.548;2023-01-23T09:55:48;5.30;;;4.90;;
7571;SDS011;3827;49.928;8.548;2023-01-23T09:58:19;5.32;;;4.93;;
7571;SDS011;3827;49.928;8.548;2023-01-23T10:00:51;5.55;;;5.15;;
7571;SDS011;3827;49.928;8.548;2023-01-23T10:03:19;5.40;;;5.00;;
7571;SDS011;3827;49.928;8.548;2023-01-23T10:05:52;4.88;;;4.50;;
7571;SDS011;3827;49.928;8.548;2023-01-23T10:08:29;5.22;;;4.80;;
7571;SDS011;3827;49.928;8.548;2023-01-23T10:11:04;5.75;;;5.35;;
7571;SDS011;3827;49.928;8.548;2023-01-23T10:13:41;4.60;;;4.30;;
7571;SDS011;3827;49.928;8.548;2023-01-23T10:16:20;5.13;;;4.72;;
7571;SDS011;3827;49.928;8.548;2023-01-23T10:19:03;5.10;;;4.70;;
7571;SDS011;3827;49.928;8.548;2023-01-23T10:21:41;5.30;;;4.90;;
7571;SDS011;3827;49.928;8.548;2023-01-23T10:24:20;4.70;;;4.40;;
7571;SDS011;3827;49.928;8.548;2023-01-23T10:27:02;5.22;;;4.82;;
7571;SDS011;3827;49.928;8.548;2023-01-23T10:29:42;5.05;;;4.65;;
7571;SDS011;3827;49.928;8.548;2023-01-23T10:32:16;5.30;;;4.90;;
7571;SDS011;3827;49.928;8.548;2023-01-23T10:34:56;5.00;;;4.60;;
7571;SDS011;3827;49.928;8.548;2023-01-23T10:37:38;4.75;;;4.40;;
7571;SDS011;3827;49.928;8.548;2023-01-23T10:40:10;4.97;;;4.63;;
7571;SDS011;3827;49.928;8.548;2023-01-23T10:42:39;5.23;;;4.83;;
7571;SDS011;3827;49.928;8.548;2023-01-23T10:45:06;5.65;;;5.25;;
7571;SDS011;3827;49.928;8.548;2023-01-23T10:47:43;5.38;;;4.97;;
7571;SDS011;3827;49.928;8.548;2023-01-23T10:50:11;6.05;;;5.53;;
7571;SDS011;3827;49.928;8.548;2023-01-23T10:52:39;5.93;;;5.43;;
7571;SDS011;3827;49.928;8.548;2023-01-23T10:57:56;5.67;;;5.27;;
7571;SDS011;3827;49.928;8.548;2023-01-23T11:00:27;5.68;;;5.28;;
7571;SDS011;3827;49.928;8.548;2023-01-23T11:05:53;6.82;;;6.28;;
7571;SDS011;3827;49.928;8.548;2023-01-23T11:08:22;6.00;;;5.50;;
7571;SDS011;3827;49.928;8.548;2023-01-23T11:10:52;6.68;;;6.10;;
7571;SDS011;3827;49.928;8.548;2023-01-23T11:13:26;6.80;;;6.20;;
7571;SDS011;3827;49.928;8.548;2023-01-23T11:15:53;7.70;;;6.95;;
7571;SDS011;3827;49.928;8.548;2023-01-23T11:18:28;7.53;;;6.93;;
7571;SDS011;3827;49.928;8.548;2023-01-23T11:20:58;7.40;;;6.80;;
7571;SDS011;3827;49.928;8.548;2023-01-23T11:23:26;8.07;;;7.35;;
7571;SDS011;3827;49.928;8.548;2023-01-23T11:25:55;6.45;;;5.93;;
7571;SDS011;3827;49.928;8.548;2023-01-23T11:28:22;6.68;;;6.07;;
7571;SDS011;3827;49.928;8.548;2023-01-23T11:30:53;6.80;;;6.30;;
7571;SDS011;3827;49.928;8.548;2023-01-23T11:33:33;5.95;;;5.55;;
7571;SDS011;3827;49.928;8.548;2023-01-23T11:36:10;6.80;;;6.20;;
7571;SDS011;3827;49.928;8.548;2023-01-23T11:38:51;6.78;;;6.28;;
7571;SDS011;3827;49.928;8.548;2023-01-23T11:41:22;6.50;;;5.95;;
7571;SDS011;3827;49.928;8.548;2023-01-23T11:43:55;6.70;;;6.20;;
7571;SDS011;3827;49.928;8.548;2023-01-23T11:46:35;6.30;;;5.80;;
7571;SDS011;3827;49.928;8.548;2023-01-23T11:49:13;6.57;;;5.97;;
7571;SDS011;3827;49.928;8.548;2023-01-23T11:51:53;6.90;;;6.30;;
7571;SDS011;3827;49.928;8.548;2023-01-23T11:54:39;6.30;;;5.88;;
7571;SDS011;3827;49.928;8.548;2023-01-23T11:57:22;6.70;;;6.20;;
7571;SDS011;3827;49.928;8.548;2023-01-23T12:00:01;6.73;;;6.20;;
7571;SDS011;3827;49.928;8.548;2023-01-23T12:02:56;7.05;;;6.45;;
7571;SDS011;3827;49.928;8.548;2023-01-23T12:05:44;6.43;;;5.93;;
7571;SDS011;3827;49.928;8.548;2023-01-23T12:08:26;7.70;;;7.00;;
7571;SDS011;3827;49.928;8.548;2023-01-23T12:11:05;6.88;;;6.28;;
7571;SDS011;3827;49.928;8.548;2023-01-23T12:16:25;7.60;;;7.00;;
7571;SDS011;3827;49.928;8.548;2023-01-23T12:19:08;11.82;;;10.82;;
7571;SDS011;3827;49.928;8.548;2023-01-23T12:21:48;7.30;;;6.70;;
7571;SDS011;3827;49.928;8.548;2023-01-23T12:24:28;6.80;;;6.20;;
7571;SDS011;3827;49.928;8.548;2023-01-23T12:27:08;7.35;;;6.75;;
7571;SDS011;3827;49.928;8.548;2023-01-23T12:29:48;6.63;;;6.05;;
7571;SDS011;3827;49.928;8.548;2023-01-23T12:32:37;6.50;;;6.00;;
7571;SDS011;3827;49.928;8.548;2023-01-23T12:35:24;6.10;;;5.60;;
7571;SDS011;3827;49.928;8.548;2023-01-23T12:38:15;5.55;;;5.15;;
7571;SDS011;3827;49.928;8.548;2023-01-23T12:40:51;5.80;;;5.40;;
7571;SDS011;3827;49.928;8.548;2023-01-23T12:43:34;5.35;;;4.95;;
7571;SDS011;3827;49.928;8.548;2023-01-23T12:46:06;5.80;;;5.30;;
7571;SDS011;3827;49.928;8.548;2023-01-23T12:48:36;5.30;;;4.90;;
7571;SDS011;3827;49.928;8.548;2023-01-23T12:51:09;5.18;;;4.78;;
7571;SDS011;3827;49.928;8.548;2023-01-23T12:53:40;5.00;;;4.60;;
7571;SDS011;3827;49.928;8.548;2023-01-23T12:56:12;4.80;;;4.50;;
7571;SDS011;3827;49.928;8.548;2023-01-23T12:58:43;4.40;;;4.10;;
7571;SDS011;3827;49.928;8.548;2023-01-23T13:01:20;5.20;;;4.80;;
7571;SDS011;3827;49.928;8.548;2023-01-23T13:04:00;5.60;;;5.10;;
7571;SDS011;3827;49.928;8.548;2023-01-23T13:09:25;8.48;;;7.65;;
7571;SDS011;3827;49.928;8.548;2023-01-23T13:12:03;7.10;;;6.50;;
7571;SDS011;3827;49.928;8.548;2023-01-23T13:14:42;5.32;;;4.93;;
7571;SDS011;3827;49.928;8.548;2023-01-23T13:17:27;5.40;;;5.00;;
7571;SDS011;3827;49.928;8.548;2023-01-23T13:20:06;6.00;;;5.50;;
7571;SDS011;3827;49.928;8.548;2023-01-23T13:23:17;5.38;;;4.97;;
7571;SDS011;3827;49.928;8.548;2023-01-23T13:25:45;5.82;;;5.22;;
7571;SDS011;3827;49.928;8.548;2023-01-23T13:28:28;5.68;;;5.28;;
7571;SDS011;3827;49.928;8.548;2023-01-23T13:30:59;5.78;;;5.30;;
7571;SDS011;3827;49.928;8.548;2023-01-23T13:36:23;6.00;;;5.50;;
7571;SDS011;3827;49.928;8.548;2023-01-23T13:41:51;6.00;;;5.50;;
7571;SDS011;3827;49.928;8.548;2023-01-23T13:48:14;5.55;;;5.15;;
7571;SDS011;3827;49.928;8.548;2023-01-23T13:51:15;6.37;;;5.87;;
7571;SDS011;3827;49.928;8.548;2023-01-23T13:53:44;5.95;;;5.47;;
7571;SDS011;3827;49.928;8.548;2023-01-23T13:56:30;6.50;;;6.00;;
7571;SDS011;3827;49.928;8.548;2023-01-23T13:59:04;6.03;;;5.53;;
7571;SDS011;3827;49.928;8.548;2023-01-23T14:01:36;6.05;;;5.55;;
7571;SDS011;3827;49.928;8.548;2023-01-23T14:04:29;6.40;;;5.90;;
7571;SDS011;3827;49.928;8.548;2023-01-23T14:07:24;6.00;;;5.50;;
7571;SDS011;3827;49.928;8.548;2023-01-23T14:10:11;6.30;;;5.80;;
7571;SDS011;3827;49.928;8.548;2023-01-23T14:12:43;8.60;;;7.78;;
7571;SDS011;3827;49.928;8.548;2023-01-23T14:15:17;7.80;;;7.10;;
7571;SDS011;3827;49.928;8.548;2023-01-23T14:18:10;6.55;;;6.05;;
7571;SDS011;3827;49.928;8.548;2023-01-23T14:20:41;6.40;;;5.90;;
7571;SDS011;3827;49.928;8.548;2023-01-23T14:23:21;6.03;;;5.53;;
7571;SDS011;3827;49.928;8.548;2023-01-23T14:25:54;5.75;;;5.35;;
7571;SDS011;3827;49.928;8.548;2023-01-23T14:28:21;6.25;;;5.75;;
7571;SDS011;3827;49.928;8.548;2023-01-23T14:30:51;7.05;;;6.55;;
7571;SDS011;3827;49.928;8.548;2023-01-23T14:33:24;6.72;;;6.20;;
7571;SDS011;3827;49.928;8.548;2023-01-23T14:35:52;6.50;;;6.00;;
7571;SDS011;3827;49.928;8.548;2023-01-23T14:38:26;6.47;;;5.97;;
7571;SDS011;3827;49.928;8.548;2023-01-23T14:40:56;6.47;;;5.97;;
7571;SDS011;3827;49.928;8.548;2023-01-23T14:43:24;6.22;;;5.72;;
7571;SDS011;3827;49.928;8.548;2023-01-23T14:45:58;5.57;;;5.13;;
7571;SDS011;3827;49.928;8.548;2023-01-23T14:48:29;6.45;;;5.95;;
7571;SDS011;3827;49.928;8.548;2023-01-23T14:51:00;6.03;;;5.53;;
7571;SDS011;3827;49.928;8.548;2023-01-23T14:53:33;6.23;;;5.73;;
7571;SDS011;3827;49.928;8.548;2023-01-23T14:56:04;5.93;;;5.43;;
7571;SDS011;3827;49.928;8.548;2023-01-23T14:58:31;6.18;;;5.57;;
7571;SDS011;3827;49.928;8.548;2023-01-23T15:00:59;6.28;;;5.78;;
7571;SDS011;3827;49.928;8.548;2023-01-23T15:03:34;5.93;;;5.43;;
7571;SDS011;3827;49.928;8.548;2023-01-23T15:06:10;6.00;;;5.50;;
7571;SDS011;3827;49.928;8.548;2023-01-23T15:08:39;5.53;;;5.13;;
7571;SDS011;3827;49.928;8.548;2023-01-23T15:11:07;5.35;;;4.95;;
7571;SDS011;3827;49.928;8.548;2023-01-23T15:13:40;5.78;;;5.38;;
7571;SDS011;3827;49.928;8.548;2023-01-23T15:16:16;6.13;;;5.63;;
7571;SDS011;3827;49.928;8.548;2023-01-23T15:18:52;5.67;;;5.27;;
7571;SDS011;3827;49.928;8.548;2023-01-23T15:21:24;5.80;;;5.30;;
7571;SDS011;3827;49.928;8.548;2023-01-23T15:26:59;5.60;;;5.20;;
7571;SDS011;3827;49.928;8.548;2023-01-23T15:29:28;5.68;;;5.25;;
7571;SDS011;3827;49.928;8.548;2023-01-23T15:31:56;7.13;;;6.53;;
7571;SDS011;3827;49.928;8.548;2023-01-23T15:34:26;8.00;;;7.38;;
7571;SDS011;3827;49.928;8.548;2023-01-23T15:36:56;8.45;;;7.75;;
7571;SDS011;3827;49.928;8.548;2023-01-23T15:39:27;9.00;;;8.20;;
7571;SDS011;3827;49.928;8.548;2023-01-23T15:41:56;9.77;;;8.97;;
7571;SDS011;3827;49.928;8.548;2023-01-23T15:44:25;9.18;;;8.38;;
7571;SDS011;3827;49.928;8.548;2023-01-23T15:46:54;9.32;;;8.52;;
7571;SDS011;3827;49.928;8.548;2023-01-23T15:49:21;9.30;;;8.50;;
7571;SDS011;3827;49.928;8.548;2023-01-23T15:51:49;9.18;;;8.38;;
7571;SDS011;3827;49.928;8.548;2023-01-23T15:54:20;8.60;;;7.90;;